createdAt,value
2018-06-11T00:00:00.000Z,22.5
2018-06-11T00:05:00.000Z,22.5
2018-06-11T00:10:00.000Z,22.5
2018-06-11T00:15:00.000Z,22.5
2018-06-11T00:20:00.000Z,22.5
2018-06-11T00:25:00.000Z,22.5
2018-06-11T00:30:00.000Z,22.5
2018-06-11T00:35:00.000Z,22.4
2018-06-11T00:40:00.000Z,22.4
2018-06-11T00:45:00.000Z,22.3
2018-06-11T00:50:00.000Z,22.3
2018-06-11T00:55:00.000Z,22.3
2018-06-11T01:00:00.000Z,22.2
2018-06-11T01:05:00.000Z,22.2
2018-06-11T01:10:00.000Z,22.1
2018-06-11T01:15:00.000Z,22.0
2018-06-11T01:20:00.000Z,22.0
2018-06-11T01:25:00.000Z,22.0
2018-06-11T01:30:00.000Z,22.0
2018-06-11T01:35:00.000Z,22.0
2018-06-11T01:40:00.000Z,22.0
2018-06-11T01:45:00.000Z,22.0
2018-06-11T01:50:00.000Z,21.9
2018-06-11T01:56:00.000Z,21.9
2018-06-11T02:01:00.000Z,21.8
2018-06-11T02:06:00.000Z,21.8
2018-06-11T02:11:00.000Z,21.8
2018-06-11T02:16:00.000Z,21.8
2018-06-11T02:21:00.000Z,21.8
2018-06-11T02:26:00.000Z,21.7
2018-06-11T02:31:00.000Z,21.7
2018-06-11T02:36:00.000Z,21.7
2018-06-11T02:41:00.000Z,21.7
2018-06-11T02:46:00.000Z,21.7
2018-06-11T02:51:00.000Z,21.7
2018-06-11T02:56:00.000Z,21.7
2018-06-11T03:01:00.000Z,21.7
2018-06-11T03:06:00.000Z,21.7
2018-06-11T03:11:00.000Z,21.7
2018-06-11T03:16:00.000Z,21.7
2018-06-11T03:21:00.000Z,21.7
2018-06-11T03:26:00.000Z,21.7
2018-06-11T03:31:00.000Z,21.7
2018-06-11T03:36:00.000Z,21.7
2018-06-11T03:41:00.000Z,21.7
2018-06-11T03:46:00.000Z,21.7
2018-06-11T03:51:00.000Z,21.7
2018-06-11T03:56:00.000Z,21.7
2018-06-11T04:01:00.000Z,21.7
2018-06-11T04:06:00.000Z,21.8
2018-06-11T04:11:00.000Z,21.8
2018-06-11T04:16:00.000Z,21.8
2018-06-11T04:21:00.000Z,21.9
2018-06-11T04:26:00.000Z,21.9
2018-06-11T04:31:00.000Z,22.0
2018-06-11T04:36:00.000Z,22.0
2018-06-11T04:41:00.000Z,22.1
2018-06-11T04:46:00.000Z,22.1
2018-06-11T04:51:00.000Z,22.2
2018-06-11T04:56:00.000Z,22.3
2018-06-11T05:01:00.000Z,22.4
2018-06-11T05:06:00.000Z,22.5
2018-06-11T05:11:00.000Z,22.6
2018-06-11T05:16:00.000Z,22.7
2018-06-11T05:21:00.000Z,22.9
2018-06-11T05:26:00.000Z,23.0
2018-06-11T05:31:00.000Z,23.1
2018-06-11T05:36:00.000Z,23.2
2018-06-11T05:41:00.000Z,23.3
2018-06-11T05:46:00.000Z,23.4
2018-06-11T05:51:00.000Z,23.5
2018-06-11T05:56:00.000Z,23.6
2018-06-11T06:01:00.000Z,23.8
2018-06-11T06:06:00.000Z,23.9
2018-06-11T06:11:00.000Z,24.1
2018-06-11T06:16:00.000Z,24.2
2018-06-11T06:21:00.000Z,24.3
2018-06-11T06:26:00.000Z,24.4
2018-06-11T06:31:00.000Z,24.6
2018-06-11T06:36:00.000Z,24.8
2018-06-11T06:41:00.000Z,25.0
2018-06-11T06:46:00.000Z,25.5
2018-06-11T06:51:00.000Z,26.1
2018-06-11T06:56:00.000Z,26.7
2018-06-11T07:01:00.000Z,27.4
2018-06-11T07:06:00.000Z,28.0
2018-06-11T07:11:00.000Z,28.6
2018-06-11T07:16:00.000Z,28.9
2018-06-11T07:21:00.000Z,29.2
2018-06-11T07:26:00.000Z,29.4
2018-06-11T07:31:00.000Z,29.6
2018-06-11T07:36:00.000Z,29.8
2018-06-11T07:41:00.000Z,30.1
2018-06-11T07:46:00.000Z,30.5
2018-06-11T07:51:00.000Z,30.7
2018-06-11T07:57:00.000Z,31.0
2018-06-11T08:02:00.000Z,31.3
2018-06-11T08:07:00.000Z,31.7
2018-06-11T08:12:00.000Z,32.0
2018-06-11T08:17:00.000Z,32.3
2018-06-11T08:22:00.000Z,32.7
2018-06-11T08:27:00.000Z,33.0
2018-06-11T08:32:00.000Z,32.8
2018-06-11T08:37:00.000Z,32.8
2018-06-11T08:42:00.000Z,33.2
2018-06-11T08:47:00.000Z,33.6
2018-06-11T08:52:00.000Z,34.1
2018-06-11T08:57:00.000Z,34.3
2018-06-11T09:02:00.000Z,33.8
2018-06-11T09:07:00.000Z,33.3
2018-06-11T09:12:00.000Z,33.3
2018-06-11T09:17:00.000Z,32.7
2018-06-11T09:22:00.000Z,32.0
2018-06-11T09:27:00.000Z,31.4
2018-06-11T09:32:00.000Z,30.8
2018-06-11T09:37:00.000Z,30.4
2018-06-11T09:42:00.000Z,30.1
2018-06-11T09:47:00.000Z,30.3
2018-06-11T09:52:00.000Z,30.9
2018-06-11T09:57:00.000Z,31.4
2018-06-11T10:02:00.000Z,31.9
2018-06-11T10:07:00.000Z,31.9
2018-06-11T10:12:00.000Z,31.4
2018-06-11T10:17:00.000Z,31.4
2018-06-11T10:22:00.000Z,31.9
2018-06-11T10:27:00.000Z,32.6
2018-06-11T10:32:00.000Z,32.5
2018-06-11T10:37:00.000Z,32.7
2018-06-11T10:42:00.000Z,32.9
2018-06-11T10:47:00.000Z,33.1
2018-06-11T10:52:00.000Z,33.2
2018-06-11T10:57:00.000Z,33.4
2018-06-11T11:02:00.000Z,34.0
2018-06-11T11:07:00.000Z,34.5
2018-06-11T11:12:00.000Z,34.6
2018-06-11T11:17:00.000Z,34.6
2018-06-11T11:22:00.000Z,34.4
2018-06-11T11:27:00.000Z,34.0
2018-06-11T11:32:00.000Z,34.0
2018-06-11T11:37:00.000Z,34.1
2018-06-11T11:42:00.000Z,34.0
2018-06-11T11:47:00.000Z,33.5
2018-06-11T11:52:00.000Z,33.2
2018-06-11T11:57:00.000Z,32.9
2018-06-11T12:02:00.000Z,32.7
2018-06-11T12:07:00.000Z,32.6
2018-06-11T12:12:00.000Z,32.3
2018-06-11T12:17:00.000Z,32.2
2018-06-11T12:22:00.000Z,31.9
2018-06-11T12:27:00.000Z,31.4
2018-06-11T12:32:00.000Z,31.7
2018-06-11T12:37:00.000Z,32.4
2018-06-11T12:42:00.000Z,32.6
2018-06-11T12:47:00.000Z,32.7
2018-06-11T12:52:00.000Z,32.5
2018-06-11T12:57:00.000Z,32.3
2018-06-11T13:02:00.000Z,32.1
2018-06-11T13:07:00.000Z,32.0
2018-06-11T13:12:00.000Z,32.0
2018-06-11T13:17:00.000Z,32.1
2018-06-11T13:22:00.000Z,32.5
2018-06-11T13:27:00.000Z,32.7
2018-06-11T13:32:00.000Z,32.7
2018-06-11T13:37:00.000Z,32.5
2018-06-11T13:42:00.000Z,32.4
2018-06-11T13:47:00.000Z,32.3
2018-06-11T13:52:00.000Z,32.1
2018-06-11T13:57:00.000Z,32.0
2018-06-11T14:02:00.000Z,31.9
2018-06-11T14:07:00.000Z,32.0
2018-06-11T14:13:00.000Z,32.4
2018-06-11T14:18:00.000Z,32.9
2018-06-11T14:23:00.000Z,33.4
2018-06-11T14:28:00.000Z,33.7
2018-06-11T14:33:00.000Z,33.8
2018-06-11T14:38:00.000Z,33.9
2018-06-11T14:43:00.000Z,34.0
2018-06-11T14:48:00.000Z,34.0
2018-06-11T14:53:00.000Z,34.0
2018-06-11T14:58:00.000Z,33.9
2018-06-11T15:03:00.000Z,33.9
2018-06-11T15:08:00.000Z,33.7
2018-06-11T15:13:00.000Z,33.3
2018-06-11T15:18:00.000Z,32.9
2018-06-11T15:23:00.000Z,32.5
2018-06-11T15:28:00.000Z,32.2
2018-06-11T15:33:00.000Z,32.0
2018-06-11T15:38:00.000Z,31.8
2018-06-11T15:43:00.000Z,31.7
2018-06-11T15:48:00.000Z,31.5
2018-06-11T15:53:00.000Z,31.4
2018-06-11T15:58:00.000Z,31.4
2018-06-11T16:03:00.000Z,31.3
2018-06-11T16:08:00.000Z,31.2
2018-06-11T16:13:00.000Z,31.0
2018-06-11T16:18:00.000Z,30.8
2018-06-11T16:23:00.000Z,30.7
2018-06-11T16:28:00.000Z,30.6
2018-06-11T16:33:00.000Z,30.6
2018-06-11T16:38:00.000Z,30.6
2018-06-11T16:43:00.000Z,30.5
2018-06-11T16:48:00.000Z,30.4
2018-06-11T16:53:00.000Z,30.3
2018-06-11T16:58:00.000Z,30.2
2018-06-11T17:03:00.000Z,30.1
2018-06-11T17:08:00.000Z,30.0
2018-06-11T17:13:00.000Z,29.9
2018-06-11T17:18:00.000Z,29.7
2018-06-11T17:23:00.000Z,29.6
2018-06-11T17:28:00.000Z,29.4
2018-06-11T17:33:00.000Z,29.3
2018-06-11T17:38:00.000Z,29.2
2018-06-11T17:43:00.000Z,29.0
2018-06-11T17:48:00.000Z,28.9
2018-06-11T17:53:00.000Z,28.8
2018-06-11T17:58:00.000Z,28.6
2018-06-11T18:03:00.000Z,28.5
2018-06-11T18:08:00.000Z,28.3
2018-06-11T18:13:00.000Z,28.1
2018-06-11T18:18:00.000Z,28.0
2018-06-11T18:23:00.000Z,27.8
2018-06-11T18:28:00.000Z,27.7
2018-06-11T18:33:00.000Z,27.6
2018-06-11T18:38:00.000Z,27.5
2018-06-11T18:43:00.000Z,27.4
2018-06-11T18:48:00.000Z,27.2
2018-06-11T18:53:00.000Z,27.1
2018-06-11T18:58:00.000Z,27.0
2018-06-11T19:03:00.000Z,26.9
2018-06-11T19:08:00.000Z,26.8
2018-06-11T19:13:00.000Z,26.7
2018-06-11T19:18:00.000Z,26.6
2018-06-11T19:23:00.000Z,26.5
2018-06-11T19:28:00.000Z,26.5
2018-06-11T19:33:00.000Z,26.4
2018-06-11T19:38:00.000Z,26.3
2018-06-11T19:43:00.000Z,26.2
2018-06-11T19:48:00.000Z,26.1
2018-06-11T19:53:00.000Z,26.0
2018-06-11T19:58:00.000Z,25.9
2018-06-11T20:03:00.000Z,25.9
2018-06-11T20:08:00.000Z,25.8
2018-06-11T20:13:00.000Z,25.7
2018-06-11T20:18:00.000Z,25.7
2018-06-11T20:24:00.000Z,25.6
2018-06-11T20:29:00.000Z,25.5
2018-06-11T20:34:00.000Z,25.4
2018-06-11T20:39:00.000Z,25.4
2018-06-11T20:44:00.000Z,25.3
2018-06-11T20:49:00.000Z,25.2
2018-06-11T20:54:00.000Z,25.2
2018-06-11T20:59:00.000Z,25.1
2018-06-11T21:04:00.000Z,25.1
2018-06-11T21:09:00.000Z,25.0
2018-06-11T21:14:00.000Z,24.9
2018-06-11T21:19:00.000Z,24.9
2018-06-11T21:24:00.000Z,24.8
2018-06-11T21:29:00.000Z,24.8
2018-06-11T21:34:00.000Z,24.7
2018-06-11T21:39:00.000Z,24.6
2018-06-11T21:44:00.000Z,24.5
2018-06-11T21:49:00.000Z,24.5
2018-06-11T21:54:00.000Z,24.4
2018-06-11T21:59:00.000Z,24.4
2018-06-11T22:04:00.000Z,24.4
2018-06-11T22:09:00.000Z,24.4
2018-06-11T22:14:00.000Z,24.4
2018-06-11T22:19:00.000Z,24.4
2018-06-11T22:24:00.000Z,24.4
2018-06-11T22:29:00.000Z,24.4
2018-06-11T22:34:00.000Z,24.4
2018-06-11T22:39:00.000Z,24.4
2018-06-11T22:44:00.000Z,24.4
2018-06-11T22:49:00.000Z,24.4
2018-06-11T22:54:00.000Z,24.4
2018-06-11T22:59:00.000Z,24.3
2018-06-11T23:04:00.000Z,24.3
2018-06-11T23:09:00.000Z,24.3
2018-06-11T23:14:00.000Z,24.3
2018-06-11T23:19:00.000Z,24.2
2018-06-11T23:24:00.000Z,24.1
2018-06-11T23:29:00.000Z,24.1
2018-06-11T23:34:00.000Z,24.0
2018-06-11T23:39:00.000Z,24.1
2018-06-11T23:44:00.000Z,24.0
2018-06-11T23:49:00.000Z,24.0
2018-06-11T23:54:00.000Z,23.9
2018-06-11T23:59:00.000Z,23.9
